sensor_id;sensor_type;location;lat;lon;timestamp;P1;durP1;ratioP1;P2;durP2;ratioP2
11568;SDS011;5840;46.894;15.542;2024-03-02T00:05:24;63.00;;;48.53;;
11568;SDS011;5840;46.894;15.542;2024-03-02T00:07:52;65.33;;;49.07;;
11568;SDS011;5840;46.894;15.542;2024-03-02T00:10:21;69.57;;;50.43;;
11568;SDS011;5840;46.894;15.542;2024-03-02T00:12:50;61.93;;;47.87;;
11568;SDS011;5840;46.894;15.542;2024-03-02T00:15:23;68.53;;;50.50;;
11568;SDS011;5840;46.894;15.542;2024-03-02T00:18:05;68.37;;;52.47;;
11568;SDS011;5840;46.894;15.542;2024-03-02T00:20:33;68.13;;;51.57;;
11568;SDS011;5840;46.894;15.542;2024-03-02T00:23:00;66.07;;;49.23;;
11568;SDS011;5840;46.894;15.542;2024-03-02T00:30:38;64.77;;;49.13;;
11568;SDS011;5840;46.894;15.542;2024-03-02T00:33:25;63.63;;;47.47;;
11568;SDS011;5840;46.894;15.542;2024-03-02T00:35:53;64.00;;;49.47;;
11568;SDS011;5840;46.894;15.542;2024-03-02T00:38:20;64.33;;;49.27;;
11568;SDS011;5840;46.894;15.542;2024-03-02T00:40:46;65.03;;;49.37;;
11568;SDS011;5840;46.894;15.542;2024-03-02T00:43:18;66.70;;;50.17;;
11568;SDS011;5840;46.894;15.542;2024-03-02T00:46:09;64.37;;;50.33;;
11568;SDS011;5840;46.894;15.542;2024-03-02T00:56:09;60.43;;;47.67;;
11568;SDS011;5840;46.894;15.542;2024-03-02T00:58:37;55.67;;;44.27;;
11568;SDS011;5840;46.894;15.542;2024-03-02T01:01:03;64.10;;;49.30;;
11568;SDS011;5840;46.894;15.542;2024-03-02T01:03:30;58.90;;;45.13;;
11568;SDS011;5840;46.894;15.542;2024-03-02T01:05:57;59.53;;;47.90;;
11568;SDS011;5840;46.894;15.542;2024-03-02T01:08:23;64.37;;;49.83;;
11568;SDS011;5840;46.894;15.542;2024-03-02T01:10:50;61.57;;;48.43;;
11568;SDS011;5840;46.894;15.542;2024-03-02T01:13:17;63.93;;;48.70;;
11568;SDS011;5840;46.894;15.542;2024-03-02T01:20:48;64.63;;;49.57;;
11568;SDS011;5840;46.894;15.542;2024-03-02T01:23:16;62.90;;;47.93;;
11568;SDS011;5840;46.894;15.542;2024-03-02T01:25:43;63.40;;;47.83;;
11568;SDS011;5840;46.894;15.542;2024-03-02T01:28:09;65.37;;;50.93;;
11568;SDS011;5840;46.894;15.542;2024-03-02T01:30:36;67.93;;;50.87;;
11568;SDS011;5840;46.894;15.542;2024-03-02T01:33:02;63.70;;;48.70;;
11568;SDS011;5840;46.894;15.542;2024-03-02T01:35:30;62.70;;;49.27;;
11568;SDS011;5840;46.894;15.542;2024-03-02T01:37:57;65.67;;;51.00;;
11568;SDS011;5840;46.894;15.542;2024-03-02T01:45:27;66.83;;;50.67;;
11568;SDS011;5840;46.894;15.542;2024-03-02T01:47:53;68.23;;;49.87;;
11568;SDS011;5840;46.894;15.542;2024-03-02T01:50:24;64.43;;;50.30;;
11568;SDS011;5840;46.894;15.542;2024-03-02T01:52:54;68.83;;;52.00;;
11568;SDS011;5840;46.894;15.542;2024-03-02T01:55:20;70.83;;;52.20;;
11568;SDS011;5840;46.894;15.542;2024-03-02T01:57:47;72.93;;;52.90;;
11568;SDS011;5840;46.894;15.542;2024-03-02T02:00:14;64.87;;;51.20;;
11568;SDS011;5840;46.894;15.542;2024-03-02T02:02:42;62.20;;;50.60;;
11568;SDS011;5840;46.894;15.542;2024-03-02T02:10:12;68.23;;;50.83;;
11568;SDS011;5840;46.894;15.542;2024-03-02T02:12:39;62.97;;;50.07;;
11568;SDS011;5840;46.894;15.542;2024-03-02T02:17:47;61.10;;;49.00;;
11568;SDS011;5840;46.894;15.542;2024-03-02T02:22:41;64.77;;;51.30;;
11568;SDS011;5840;46.894;15.542;2024-03-02T02:25:21;71.50;;;51.80;;
11568;SDS011;5840;46.894;15.542;2024-03-02T02:27:47;69.97;;;53.63;;
11568;SDS011;5840;46.894;15.542;2024-03-02T02:35:31;75.33;;;53.37;;
11568;SDS011;5840;46.894;15.542;2024-03-02T02:37:57;66.60;;;49.90;;
11568;SDS011;5840;46.894;15.542;2024-03-02T02:40:24;65.67;;;49.43;;
11568;SDS011;5840;46.894;15.542;2024-03-02T02:42:50;75.10;;;52.60;;
11568;SDS011;5840;46.894;15.542;2024-03-02T02:45:17;67.03;;;50.00;;
11568;SDS011;5840;46.894;15.542;2024-03-02T02:47:43;70.43;;;51.73;;
11568;SDS011;5840;46.894;15.542;2024-03-02T02:50:10;69.63;;;50.63;;
11568;SDS011;5840;46.894;15.542;2024-03-02T02:52:38;76.47;;;53.33;;
11568;SDS011;5840;46.894;15.542;2024-03-02T03:02:34;70.27;;;51.53;;
11568;SDS011;5840;46.894;15.542;2024-03-02T03:05:00;71.20;;;51.07;;
11568;SDS011;5840;46.894;15.542;2024-03-02T03:07:27;67.93;;;51.07;;
11568;SDS011;5840;46.894;15.542;2024-03-02T03:09:53;65.27;;;50.53;;
11568;SDS011;5840;46.894;15.542;2024-03-02T03:12:19;70.13;;;50.03;;
11568;SDS011;5840;46.894;15.542;2024-03-02T03:14:45;75.20;;;52.83;;
11568;SDS011;5840;46.894;15.542;2024-03-02T03:17:12;73.60;;;54.43;;
11568;SDS011;5840;46.894;15.542;2024-03-02T03:19:38;66.47;;;50.73;;
11568;SDS011;5840;46.894;15.542;2024-03-02T03:29:29;66.43;;;48.10;;
11568;SDS011;5840;46.894;15.542;2024-03-02T03:31:55;60.00;;;46.20;;
11568;SDS011;5840;46.894;15.542;2024-03-02T03:34:21;58.33;;;44.83;;
11568;SDS011;5840;46.894;15.542;2024-03-02T03:36:47;60.27;;;46.00;;
11568;SDS011;5840;46.894;15.542;2024-03-02T03:39:13;57.60;;;44.17;;
11568;SDS011;5840;46.894;15.542;2024-03-02T03:41:40;57.43;;;43.70;;
11568;SDS011;5840;46.894;15.542;2024-03-02T03:44:06;58.07;;;43.57;;
11568;SDS011;5840;46.894;15.542;2024-03-02T03:46:33;54.40;;;43.03;;
11568;SDS011;5840;46.894;15.542;2024-03-02T03:54:03;46.67;;;38.70;;
11568;SDS011;5840;46.894;15.542;2024-03-02T03:56:29;46.90;;;38.67;;
11568;SDS011;5840;46.894;15.542;2024-03-02T03:58:55;47.10;;;37.80;;
11568;SDS011;5840;46.894;15.542;2024-03-02T04:01:21;46.00;;;38.27;;
11568;SDS011;5840;46.894;15.542;2024-03-02T04:03:48;46.90;;;38.17;;
11568;SDS011;5840;46.894;15.542;2024-03-02T04:06:14;46.03;;;37.83;;
11568;SDS011;5840;46.894;15.542;2024-03-02T04:08:42;48.00;;;36.47;;
11568;SDS011;5840;46.894;15.542;2024-03-02T04:11:09;47.27;;;35.97;;
11568;SDS011;5840;46.894;15.542;2024-03-02T04:18:39;57.20;;;43.77;;
11568;SDS011;5840;46.894;15.542;2024-03-02T04:21:05;56.13;;;42.33;;
11568;SDS011;5840;46.894;15.542;2024-03-02T04:23:31;49.63;;;41.30;;
11568;SDS011;5840;46.894;15.542;2024-03-02T04:25:58;57.87;;;45.17;;
11568;SDS011;5840;46.894;15.542;2024-03-02T04:28:24;56.20;;;44.13;;
11568;SDS011;5840;46.894;15.542;2024-03-02T04:30:50;61.60;;;45.47;;
11568;SDS011;5840;46.894;15.542;2024-03-02T04:33:16;65.50;;;47.30;;
11568;SDS011;5840;46.894;15.542;2024-03-02T04:35:43;65.13;;;46.97;;
11568;SDS011;5840;46.894;15.542;2024-03-02T04:45:38;51.47;;;38.20;;
11568;SDS011;5840;46.894;15.542;2024-03-02T04:48:05;48.10;;;38.40;;
11568;SDS011;5840;46.894;15.542;2024-03-02T04:50:32;50.80;;;40.17;;
11568;SDS011;5840;46.894;15.542;2024-03-02T04:53:00;47.47;;;35.47;;
11568;SDS011;5840;46.894;15.542;2024-03-02T04:55:28;44.60;;;36.33;;
11568;SDS011;5840;46.894;15.542;2024-03-02T04:58:09;47.47;;;38.33;;
11568;SDS011;5840;46.894;15.542;2024-03-02T05:00:35;46.37;;;37.70;;
11568;SDS011;5840;46.894;15.542;2024-03-02T05:03:02;55.40;;;40.97;;
11568;SDS011;5840;46.894;15.542;2024-03-02T05:10:42;62.37;;;45.57;;
11568;SDS011;5840;46.894;15.542;2024-03-02T05:13:09;87.70;;;47.80;;
11568;SDS011;5840;46.894;15.542;2024-03-02T05:15:35;60.87;;;45.63;;
11568;SDS011;5840;46.894;15.542;2024-03-02T05:18:01;69.00;;;47.93;;
11568;SDS011;5840;46.894;15.542;2024-03-02T05:20:30;59.13;;;46.10;;
11568;SDS011;5840;46.894;15.542;2024-03-02T05:22:56;62.73;;;46.93;;
11568;SDS011;5840;46.894;15.542;2024-03-02T05:25:22;61.60;;;47.30;;
11568;SDS011;5840;46.894;15.542;2024-03-02T05:27:49;66.07;;;47.27;;
11568;SDS011;5840;46.894;15.542;2024-03-02T05:35:18;67.43;;;48.53;;
11568;SDS011;5840;46.894;15.542;2024-03-02T05:37:44;51.07;;;40.67;;
11568;SDS011;5840;46.894;15.542;2024-03-02T05:40:11;47.83;;;36.93;;
11568;SDS011;5840;46.894;15.542;2024-03-02T05:42:38;49.67;;;38.20;;
11568;SDS011;5840;46.894;15.542;2024-03-02T05:45:06;46.33;;;38.43;;
11568;SDS011;5840;46.894;15.542;2024-03-02T05:47:33;47.60;;;37.70;;
11568;SDS011;5840;46.894;15.542;2024-03-02T05:49:59;50.37;;;38.43;;
11568;SDS011;5840;46.894;15.542;2024-03-02T05:52:26;48.37;;;37.93;;
11568;SDS011;5840;46.894;15.542;2024-03-02T06:02:16;47.27;;;37.13;;
11568;SDS011;5840;46.894;15.542;2024-03-02T06:04:42;45.23;;;37.17;;
11568;SDS011;5840;46.894;15.542;2024-03-02T06:07:09;48.63;;;38.13;;
11568;SDS011;5840;46.894;15.542;2024-03-02T06:09:35;52.63;;;38.53;;
11568;SDS011;5840;46.894;15.542;2024-03-02T06:12:01;50.23;;;38.63;;
11568;SDS011;5840;46.894;15.542;2024-03-02T06:14:28;48.20;;;37.70;;
11568;SDS011;5840;46.894;15.542;2024-03-02T06:16:54;50.73;;;38.43;;
11568;SDS011;5840;46.894;15.542;2024-03-02T06:19:21;52.60;;;40.40;;
11568;SDS011;5840;46.894;15.542;2024-03-02T06:26:50;55.57;;;43.27;;
11568;SDS011;5840;46.894;15.542;2024-03-02T06:29:17;52.23;;;40.07;;
11568;SDS011;5840;46.894;15.542;2024-03-02T06:31:43;49.33;;;39.53;;
11568;SDS011;5840;46.894;15.542;2024-03-02T06:34:09;48.40;;;37.67;;
11568;SDS011;5840;46.894;15.542;2024-03-02T06:36:35;45.57;;;35.77;;
11568;SDS011;5840;46.894;15.542;2024-03-02T06:39:02;46.57;;;35.83;;
11568;SDS011;5840;46.894;15.542;2024-03-02T06:41:28;44.63;;;34.40;;
11568;SDS011;5840;46.894;15.542;2024-03-02T06:43:55;44.87;;;36.63;;
11568;SDS011;5840;46.894;15.542;2024-03-02T06:53:48;43.20;;;34.60;;
11568;SDS011;5840;46.894;15.542;2024-03-02T06:56:14;40.47;;;32.53;;
11568;SDS011;5840;46.894;15.542;2024-03-02T06:58:40;38.97;;;32.50;;
11568;SDS011;5840;46.894;15.542;2024-03-02T07:01:08;43.13;;;35.43;;
11568;SDS011;5840;46.894;15.542;2024-03-02T07:03:35;43.90;;;34.60;;
11568;SDS011;5840;46.894;15.542;2024-03-02T07:06:01;47.17;;;37.13;;
11568;SDS011;5840;46.894;15.542;2024-03-02T07:08:28;43.17;;;34.17;;
11568;SDS011;5840;46.894;15.542;2024-03-02T07:10:55;43.63;;;33.73;;
11568;SDS011;5840;46.894;15.542;2024-03-02T07:18:25;38.60;;;32.77;;
11568;SDS011;5840;46.894;15.542;2024-03-02T07:20:52;37.87;;;32.10;;
11568;SDS011;5840;46.894;15.542;2024-03-02T07:23:18;39.27;;;30.97;;
11568;SDS011;5840;46.894;15.542;2024-03-02T07:25:47;38.53;;;32.03;;
11568;SDS011;5840;46.894;15.542;2024-03-02T07:28:18;40.73;;;31.60;;
11568;SDS011;5840;46.894;15.542;2024-03-02T07:30:47;38.53;;;30.63;;
11568;SDS011;5840;46.894;15.542;2024-03-02T07:33:37;34.40;;;29.77;;
11568;SDS011;5840;46.894;15.542;2024-03-02T07:38:52;35.83;;;27.00;;
11568;SDS011;5840;46.894;15.542;2024-03-02T07:41:23;37.50;;;30.30;;
11568;SDS011;5840;46.894;15.542;2024-03-02T07:43:57;35.93;;;29.23;;
11568;SDS011;5840;46.894;15.542;2024-03-02T07:46:39;34.63;;;29.63;;
11568;SDS011;5840;46.894;15.542;2024-03-02T07:49:10;32.80;;;28.50;;
11568;SDS011;5840;46.894;15.542;2024-03-02T07:51:43;31.70;;;28.20;;
11568;SDS011;5840;46.894;15.542;2024-03-02T07:54:16;29.87;;;26.67;;
11568;SDS011;5840;46.894;15.542;2024-03-02T07:59:41;35.20;;;28.60;;
11568;SDS011;5840;46.894;15.542;2024-03-02T08:07:58;31.80;;;27.73;;
11568;SDS011;5840;46.894;15.542;2024-03-02T08:10:24;32.10;;;28.03;;
11568;SDS011;5840;46.894;15.542;2024-03-02T08:12:51;34.60;;;27.73;;
11568;SDS011;5840;46.894;15.542;2024-03-02T08:15:17;33.20;;;27.87;;
11568;SDS011;5840;46.894;15.542;2024-03-02T08:17:43;30.83;;;27.47;;
11568;SDS011;5840;46.894;15.542;2024-03-02T08:22:51;29.70;;;26.50;;
11568;SDS011;5840;46.894;15.542;2024-03-02T08:25:20;29.03;;;25.63;;
11568;SDS011;5840;46.894;15.542;2024-03-02T08:27:46;31.50;;;26.43;;
11568;SDS011;5840;46.894;15.542;2024-03-02T08:30:12;31.33;;;27.57;;
11568;SDS011;5840;46.894;15.542;2024-03-02T08:32:39;32.23;;;27.90;;
11568;SDS011;5840;46.894;15.542;2024-03-02T08:35:06;30.63;;;26.47;;
11568;SDS011;5840;46.894;15.542;2024-03-02T08:37:32;30.80;;;26.37;;
11568;SDS011;5840;46.894;15.542;2024-03-02T08:39:59;32.03;;;27.97;;
11568;SDS011;5840;46.894;15.542;2024-03-02T08:49:54;28.37;;;24.43;;
11568;SDS011;5840;46.894;15.542;2024-03-02T08:52:20;27.67;;;24.67;;
11568;SDS011;5840;46.894;15.542;2024-03-02T08:54:46;26.90;;;23.87;;
11568;SDS011;5840;46.894;15.542;2024-03-02T08:57:12;27.77;;;24.73;;
11568;SDS011;5840;46.894;15.542;2024-03-02T08:59:39;26.53;;;23.60;;
11568;SDS011;5840;46.894;15.542;2024-03-02T09:02:05;26.87;;;23.97;;
11568;SDS011;5840;46.894;15.542;2024-03-02T09:04:32;25.33;;;22.63;;
11568;SDS011;5840;46.894;15.542;2024-03-02T09:06:59;26.67;;;23.87;;
11568;SDS011;5840;46.894;15.542;2024-03-02T09:14:28;25.83;;;21.83;;
11568;SDS011;5840;46.894;15.542;2024-03-02T09:16:54;22.97;;;20.67;;
11568;SDS011;5840;46.894;15.542;2024-03-02T09:19:21;24.53;;;21.97;;
11568;SDS011;5840;46.894;15.542;2024-03-02T09:21:47;25.63;;;21.73;;
11568;SDS011;5840;46.894;15.542;2024-03-02T09:24:13;24.30;;;21.47;;
11568;SDS011;5840;46.894;15.542;2024-03-02T09:26:39;23.70;;;21.20;;
11568;SDS011;5840;46.894;15.542;2024-03-02T09:29:05;23.20;;;20.70;;
11568;SDS011;5840;46.894;15.542;2024-03-02T09:31:32;22.20;;;19.87;;
11568;SDS011;5840;46.894;15.542;2024-03-02T09:39:31;23.17;;;19.20;;
11568;SDS011;5840;46.894;15.542;2024-03-02T09:41:57;21.70;;;19.40;;
11568;SDS011;5840;46.894;15.542;2024-03-02T09:44:24;23.13;;;20.67;;
11568;SDS011;5840;46.894;15.542;2024-03-02T09:46:51;21.03;;;18.67;;
11568;SDS011;5840;46.894;15.542;2024-03-02T09:49:19;23.53;;;20.57;;
11568;SDS011;5840;46.894;15.542;2024-03-02T09:51:49;21.13;;;18.90;;
11568;SDS011;5840;46.894;15.542;2024-03-02T09:54:16;22.57;;;18.43;;
11568;SDS011;5840;46.894;15.542;2024-03-02T09:56:43;22.47;;;20.07;;
11568;SDS011;5840;46.894;15.542;2024-03-02T10:04:13;23.03;;;19.33;;
11568;SDS011;5840;46.894;15.542;2024-03-02T10:06:40;19.97;;;18.07;;
11568;SDS011;5840;46.894;15.542;2024-03-02T10:09:06;21.03;;;18.60;;
11568;SDS011;5840;46.894;15.542;2024-03-02T10:11:32;20.30;;;18.30;;
11568;SDS011;5840;46.894;15.542;2024-03-02T10:14:05;20.23;;;18.23;;
11568;SDS011;5840;46.894;15.542;2024-03-02T10:16:33;18.63;;;16.70;;
11568;SDS011;5840;46.894;15.542;2024-03-02T10:19:14;19.80;;;17.73;;
11568;SDS011;5840;46.894;15.542;2024-03-02T10:21:42;17.93;;;16.17;;
11568;SDS011;5840;46.894;15.542;2024-03-02T10:29:12;19.03;;;17.13;;
11568;SDS011;5840;46.894;15.542;2024-03-02T10:31:38;18.33;;;16.40;;
11568;SDS011;5840;46.894;15.542;2024-03-02T10:34:06;17.80;;;16.10;;
11568;SDS011;5840;46.894;15.542;2024-03-02T10:36:32;19.60;;;16.57;;
11568;SDS011;5840;46.894;15.542;2024-03-02T10:39:01;16.97;;;15.27;;
11568;SDS011;5840;46.894;15.542;2024-03-02T10:41:29;16.67;;;15.13;;
11568;SDS011;5840;46.894;15.542;2024-03-02T10:43:59;17.13;;;15.47;;
11568;SDS011;5840;46.894;15.542;2024-03-02T10:46:28;16.53;;;14.93;;
11568;SDS011;5840;46.894;15.542;2024-03-02T10:53:59;15.93;;;14.43;;
11568;SDS011;5840;46.894;15.542;2024-03-02T10:56:28;15.03;;;13.63;;
11568;SDS011;5840;46.894;15.542;2024-03-02T10:58:55;16.10;;;14.50;;
11568;SDS011;5840;46.894;15.542;2024-03-02T11:01:28;16.13;;;14.53;;
11568;SDS011;5840;46.894;15.542;2024-03-02T11:03:57;14.20;;;12.90;;
11568;SDS011;5840;46.894;15.542;2024-03-02T11:06:23;15.03;;;13.63;;
11568;SDS011;5840;46.894;15.542;2024-03-02T11:08:52;14.33;;;12.90;;
11568;SDS011;5840;46.894;15.542;2024-03-02T11:11:26;13.77;;;12.47;;
11568;SDS011;5840;46.894;15.542;2024-03-02T11:18:58;13.90;;;12.60;;
11568;SDS011;5840;46.894;15.542;2024-03-02T11:21:25;13.00;;;11.80;;
11568;SDS011;5840;46.894;15.542;2024-03-02T11:23:52;11.33;;;10.33;;
11568;SDS011;5840;46.894;15.542;2024-03-02T11:26:18;12.80;;;11.70;;
11568;SDS011;5840;46.894;15.542;2024-03-02T11:28:46;12.23;;;11.13;;
11568;SDS011;5840;46.894;15.542;2024-03-02T11:31:12;11.80;;;10.70;;
11568;SDS011;5840;46.894;15.542;2024-03-02T11:33:39;12.90;;;11.53;;
11568;SDS011;5840;46.894;15.542;2024-03-02T11:36:07;12.93;;;11.63;;
11568;SDS011;5840;46.894;15.542;2024-03-02T11:43:38;13.13;;;11.90;;
11568;SDS011;5840;46.894;15.542;2024-03-02T11:46:04;12.43;;;11.07;;
11568;SDS011;5840;46.894;15.542;2024-03-02T11:48:32;11.70;;;10.50;;
11568;SDS011;5840;46.894;15.542;2024-03-02T11:51:00;13.30;;;11.97;;
11568;SDS011;5840;46.894;15.542;2024-03-02T11:53:26;13.90;;;12.60;;
11568;SDS011;5840;46.894;15.542;2024-03-02T11:55:54;13.07;;;11.87;;
11568;SDS011;5840;46.894;15.542;2024-03-02T11:58:21;13.43;;;12.27;;
11568;SDS011;5840;46.894;15.542;2024-03-02T12:00:50;13.60;;;12.30;;
11568;SDS011;5840;46.894;15.542;2024-03-02T12:08:19;13.83;;;11.90;;
11568;SDS011;5840;46.894;15.542;2024-03-02T12:10:55;14.17;;;11.20;;
11568;SDS011;5840;46.894;15.542;2024-03-02T12:13:22;13.97;;;11.27;;
11568;SDS011;5840;46.894;15.542;2024-03-02T12:15:52;12.23;;;10.93;;
11568;SDS011;5840;46.894;15.542;2024-03-02T12:18:19;12.40;;;11.07;;
11568;SDS011;5840;46.894;15.542;2024-03-02T12:20:45;13.30;;;11.37;;
11568;SDS011;5840;46.894;15.542;2024-03-02T12:23:13;12.20;;;11.10;;
11568;SDS011;5840;46.894;15.542;2024-03-02T12:25:41;12.00;;;10.90;;
11568;SDS011;5840;46.894;15.542;2024-03-02T12:33:11;12.17;;;11.07;;
11568;SDS011;5840;46.894;15.542;2024-03-02T12:35:37;12.57;;;11.40;;
11568;SDS011;5840;46.894;15.542;2024-03-02T12:38:04;13.30;;;12.00;;
11568;SDS011;5840;46.894;15.542;2024-03-02T12:40:30;13.23;;;12.03;;
11568;SDS011;5840;46.894;15.542;2024-03-02T12:42:57;12.43;;;11.30;;
11568;SDS011;5840;46.894;15.542;2024-03-02T12:45:23;14.00;;;12.70;;
11568;SDS011;5840;46.894;15.542;2024-03-02T12:47:49;13.43;;;12.17;;
11568;SDS011;5840;46.894;15.542;2024-03-02T12:50:17;13.30;;;12.00;;
11568;SDS011;5840;46.894;15.542;2024-03-02T12:57:47;13.47;;;12.00;;
11568;SDS011;5840;46.894;15.542;2024-03-02T13:00:20;15.93;;;14.33;;
11568;SDS011;5840;46.894;15.542;2024-03-02T13:03:05;17.93;;;16.17;;
11568;SDS011;5840;46.894;15.542;2024-03-02T13:05:32;16.33;;;14.40;;
11568;SDS011;5840;46.894;15.542;2024-03-02T13:07:58;16.17;;;14.67;;
11568;SDS011;5840;46.894;15.542;2024-03-02T13:10:28;18.93;;;16.77;;
11568;SDS011;5840;46.894;15.542;2024-03-02T13:12:56;18.53;;;16.63;;
11568;SDS011;5840;46.894;15.542;2024-03-02T13:15:22;18.63;;;16.20;;
11568;SDS011;5840;46.894;15.542;2024-03-02T13:23:06;15.60;;;14.00;;
11568;SDS011;5840;46.894;15.542;2024-03-02T13:25:32;15.47;;;13.53;;
11568;SDS011;5840;46.894;15.542;2024-03-02T13:27:59;15.73;;;14.10;;
11568;SDS011;5840;46.894;15.542;2024-03-02T13:30:25;15.63;;;14.23;;
11568;SDS011;5840;46.894;15.542;2024-03-02T13:32:51;18.90;;;17.00;;
11568;SDS011;5840;46.894;15.542;2024-03-02T13:35:18;17.87;;;15.73;;
11568;SDS011;5840;46.894;15.542;2024-03-02T13:37:44;17.03;;;15.30;;
11568;SDS011;5840;46.894;15.542;2024-03-02T13:40:11;16.20;;;14.77;;
11568;SDS011;5840;46.894;15.542;2024-03-02T13:47:45;18.03;;;16.17;;
11568;SDS011;5840;46.894;15.542;2024-03-02T13:50:11;18.17;;;16.47;;
11568;SDS011;5840;46.894;15.542;2024-03-02T13:52:37;20.50;;;18.53;;
11568;SDS011;5840;46.894;15.542;2024-03-02T13:55:04;18.43;;;16.70;;
11568;SDS011;5840;46.894;15.542;2024-03-02T13:57:31;18.80;;;16.70;;
11568;SDS011;5840;46.894;15.542;2024-03-02T13:59:57;19.27;;;17.33;;
11568;SDS011;5840;46.894;15.542;2024-03-02T14:02:23;19.43;;;17.63;;
11568;SDS011;5840;46.894;15.542;2024-03-02T14:04:50;18.47;;;16.57;;
11568;SDS011;5840;46.894;15.542;2024-03-02T14:12:19;20.13;;;17.93;;
11568;SDS011;5840;46.894;15.542;2024-03-02T14:14:47;19.63;;;17.57;;
11568;SDS011;5840;46.894;15.542;2024-03-02T14:17:16;19.63;;;17.63;;
11568;SDS011;5840;46.894;15.542;2024-03-02T14:19:42;19.67;;;17.77;;
11568;SDS011;5840;46.894;15.542;2024-03-02T14:22:08;18.93;;;17.10;;
11568;SDS011;5840;46.894;15.542;2024-03-02T14:24:34;18.37;;;16.50;;
11568;SDS011;5840;46.894;15.542;2024-03-02T14:27:01;20.57;;;18.50;;
11568;SDS011;5840;46.894;15.542;2024-03-02T14:29:30;19.93;;;17.93;;
11568;SDS011;5840;46.894;15.542;2024-03-02T14:36:56;20.77;;;18.77;;
11568;SDS011;5840;46.894;15.542;2024-03-02T14:39:22;22.00;;;19.80;;
11568;SDS011;5840;46.894;15.542;2024-03-02T14:41:49;21.63;;;19.50;;
11568;SDS011;5840;46.894;15.542;2024-03-02T14:44:15;21.23;;;19.13;;
11568;SDS011;5840;46.894;15.542;2024-03-02T14:46:42;22.53;;;20.37;;
11568;SDS011;5840;46.894;15.542;2024-03-02T14:49:09;22.67;;;20.40;;
11568;SDS011;5840;46.894;15.542;2024-03-02T14:51:36;24.23;;;21.60;;
11568;SDS011;5840;46.894;15.542;2024-03-02T14:54:03;24.03;;;21.47;;
11568;SDS011;5840;46.894;15.542;2024-03-02T15:01:28;27.57;;;24.80;;
11568;SDS011;5840;46.894;15.542;2024-03-02T15:03:55;27.20;;;24.67;;
11568;SDS011;5840;46.894;15.542;2024-03-02T15:06:21;24.43;;;22.00;;
11568;SDS011;5840;46.894;15.542;2024-03-02T15:08:47;23.80;;;21.37;;
11568;SDS011;5840;46.894;15.542;2024-03-02T15:11:13;25.90;;;23.30;;
11568;SDS011;5840;46.894;15.542;2024-03-02T15:13:40;23.70;;;21.43;;
11568;SDS011;5840;46.894;15.542;2024-03-02T15:16:08;24.00;;;21.67;;
11568;SDS011;5840;46.894;15.542;2024-03-02T15:18:35;22.50;;;20.20;;
11568;SDS011;5840;46.894;15.542;2024-03-02T15:28:30;24.03;;;21.63;;
11568;SDS011;5840;46.894;15.542;2024-03-02T15:30:56;23.63;;;21.23;;
11568;SDS011;5840;46.894;15.542;2024-03-02T15:33:22;24.63;;;22.20;;
11568;SDS011;5840;46.894;15.542;2024-03-02T15:35:50;23.97;;;21.53;;
11568;SDS011;5840;46.894;15.542;2024-03-02T15:38:16;26.50;;;23.43;;
11568;SDS011;5840;46.894;15.542;2024-03-02T15:40:42;24.67;;;22.23;;
11568;SDS011;5840;46.894;15.542;2024-03-02T15:43:09;24.77;;;22.37;;
11568;SDS011;5840;46.894;15.542;2024-03-02T15:45:36;24.00;;;21.70;;
11568;SDS011;5840;46.894;15.542;2024-03-02T15:55:10;25.10;;;22.70;;
11568;SDS011;5840;46.894;15.542;2024-03-02T15:57:36;24.50;;;22.07;;
11568;SDS011;5840;46.894;15.542;2024-03-02T16:00:03;24.87;;;22.27;;
11568;SDS011;5840;46.894;15.542;2024-03-02T16:02:30;24.33;;;21.83;;
11568;SDS011;5840;46.894;15.542;2024-03-02T16:04:57;24.73;;;22.23;;
11568;SDS011;5840;46.894;15.542;2024-03-02T16:07:23;23.83;;;21.47;;
11568;SDS011;5840;46.894;15.542;2024-03-02T16:09:49;23.57;;;21.07;;
11568;SDS011;5840;46.894;15.542;2024-03-02T16:12:16;24.83;;;22.30;;
11568;SDS011;5840;46.894;15.542;2024-03-02T16:19:41;25.57;;;22.97;;
11568;SDS011;5840;46.894;15.542;2024-03-02T16:22:07;26.37;;;23.80;;
11568;SDS011;5840;46.894;15.542;2024-03-02T16:24:36;26.07;;;23.57;;
11568;SDS011;5840;46.894;15.542;2024-03-02T16:27:02;25.80;;;23.20;;
11568;SDS011;5840;46.894;15.542;2024-03-02T16:29:28;27.63;;;24.90;;
11568;SDS011;5840;46.894;15.542;2024-03-02T16:31:55;28.80;;;25.77;;
11568;SDS011;5840;46.894;15.542;2024-03-02T16:34:21;27.83;;;25.03;;
11568;SDS011;5840;46.894;15.542;2024-03-02T16:36:48;27.93;;;25.13;;
11568;SDS011;5840;46.894;15.542;2024-03-02T16:46:42;29.40;;;26.30;;
11568;SDS011;5840;46.894;15.542;2024-03-02T16:49:10;28.73;;;25.83;;
11568;SDS011;5840;46.894;15.542;2024-03-02T16:51:39;27.93;;;25.23;;
11568;SDS011;5840;46.894;15.542;2024-03-02T16:54:06;28.97;;;26.17;;
11568;SDS011;5840;46.894;15.542;2024-03-02T16:56:37;27.40;;;24.70;;
11568;SDS011;5840;46.894;15.542;2024-03-02T16:59:03;28.90;;;26.00;;
11568;SDS011;5840;46.894;15.542;2024-03-02T17:01:30;28.40;;;25.50;;
11568;SDS011;5840;46.894;15.542;2024-03-02T17:03:56;29.57;;;26.57;;
11568;SDS011;5840;46.894;15.542;2024-03-02T17:11:22;28.23;;;25.40;;
11568;SDS011;5840;46.894;15.542;2024-03-02T17:13:48;30.60;;;27.23;;
11568;SDS011;5840;46.894;15.542;2024-03-02T17:16:17;29.80;;;26.80;;
11568;SDS011;5840;46.894;15.542;2024-03-02T17:18:43;33.83;;;30.83;;
11568;SDS011;5840;46.894;15.542;2024-03-02T17:21:09;30.87;;;27.67;;
11568;SDS011;5840;46.894;15.542;2024-03-02T17:23:35;32.27;;;29.03;;
11568;SDS011;5840;46.894;15.542;2024-03-02T17:26:02;32.17;;;28.83;;
11568;SDS011;5840;46.894;15.542;2024-03-02T17:28:29;28.27;;;25.47;;
11568;SDS011;5840;46.894;15.542;2024-03-02T17:38:23;29.63;;;26.57;;
11568;SDS011;5840;46.894;15.542;2024-03-02T17:40:49;30.23;;;27.23;;
11568;SDS011;5840;46.894;15.542;2024-03-02T17:43:16;31.37;;;28.17;;
11568;SDS011;5840;46.894;15.542;2024-03-02T17:45:42;32.53;;;29.20;;
11568;SDS011;5840;46.894;15.542;2024-03-02T17:48:08;31.10;;;28.00;;
11568;SDS011;5840;46.894;15.542;2024-03-02T17:53:03;30.63;;;27.57;;
11568;SDS011;5840;46.894;15.542;2024-03-02T17:55:30;32.93;;;29.57;;
11568;SDS011;5840;46.894;15.542;2024-03-02T18:04:57;33.47;;;29.90;;
11568;SDS011;5840;46.894;15.542;2024-03-02T18:07:23;34.77;;;31.27;;
11568;SDS011;5840;46.894;15.542;2024-03-02T18:09:50;33.60;;;30.20;;
11568;SDS011;5840;46.894;15.542;2024-03-02T18:12:16;34.00;;;30.47;;
11568;SDS011;5840;46.894;15.542;2024-03-02T18:14:42;34.77;;;31.17;;
11568;SDS011;5840;46.894;15.542;2024-03-02T18:17:08;34.13;;;30.63;;
11568;SDS011;5840;46.894;15.542;2024-03-02T18:19:34;35.93;;;32.33;;
11568;SDS011;5840;46.894;15.542;2024-03-02T18:22:01;35.53;;;31.93;;
11568;SDS011;5840;46.894;15.542;2024-03-02T18:31:55;35.57;;;31.97;;
11568;SDS011;5840;46.894;15.542;2024-03-02T18:34:22;36.23;;;32.50;;
11568;SDS011;5840;46.894;15.542;2024-03-02T18:36:49;36.33;;;32.63;;
11568;SDS011;5840;46.894;15.542;2024-03-02T18:39:15;38.47;;;34.47;;
11568;SDS011;5840;46.894;15.542;2024-03-02T18:41:41;38.23;;;34.23;;
11568;SDS011;5840;46.894;15.542;2024-03-02T18:44:07;38.03;;;34.13;;
11568;SDS011;5840;46.894;15.542;2024-03-02T18:46:33;37.10;;;33.10;;